createdAt,value
2018-10-09T00:01:53.865Z,26.23
2018-10-09T00:04:22.070Z,23.73
2018-10-09T00:06:50.423Z,22.77
2018-10-09T00:09:18.622Z,22.97
2018-10-09T00:11:46.810Z,21.97
2018-10-09T00:14:15.019Z,24.80
2018-10-09T00:16:43.226Z,25.00
2018-10-09T00:19:11.412Z,25.70
2018-10-09T00:21:39.598Z,23.73
2018-10-09T00:24:08.038Z,24.90
2018-10-09T00:26:36.234Z,24.67
2018-10-09T00:29:04.419Z,27.53
2018-10-09T00:31:32.615Z,26.37
2018-10-09T00:34:00.806Z,25.73
2018-10-09T00:36:29.010Z,22.80
2018-10-09T00:38:57.262Z,26.73
2018-10-09T00:41:25.474Z,26.17
2018-10-09T00:43:53.670Z,25.47
2018-10-09T00:46:21.871Z,26.40
2018-10-09T00:48:50.102Z,26.40
2018-10-09T00:51:18.328Z,29.20
2018-10-09T00:53:46.522Z,29.10
2018-10-09T00:56:14.715Z,30.23
2018-10-09T00:58:42.923Z,29.97
2018-10-09T01:01:11.124Z,26.03
2018-10-09T01:03:39.420Z,27.17
2018-10-09T01:06:07.590Z,30.90
2018-10-09T01:08:35.739Z,27.83
2018-10-09T01:11:03.910Z,26.73
2018-10-09T01:13:32.091Z,28.70
2018-10-09T01:16:00.766Z,27.90
2018-10-09T01:18:28.958Z,26.77
2018-10-09T01:20:57.146Z,27.53
2018-10-09T01:23:25.298Z,27.53
2018-10-09T01:25:53.462Z,27.03
2018-10-09T01:28:21.606Z,24.77
2018-10-09T01:30:49.993Z,24.13
2018-10-09T01:33:18.186Z,22.90
2018-10-09T01:35:46.386Z,25.00
2018-10-09T01:38:14.570Z,25.70
2018-10-09T01:40:42.774Z,27.10
2018-10-09T01:43:10.998Z,27.37
2018-10-09T01:45:39.170Z,26.73
2018-10-09T01:48:07.344Z,25.93
2018-10-09T01:50:35.545Z,24.90
2018-10-09T01:53:04.255Z,26.57
2018-10-09T01:55:32.422Z,26.13
2018-10-09T01:58:00.602Z,23.80
2018-10-09T02:00:28.770Z,23.53
2018-10-09T02:02:57.406Z,25.53
2018-10-09T02:05:25.572Z,24.27
2018-10-09T02:07:53.874Z,25.53
2018-10-09T02:10:22.273Z,29.03
2018-10-09T02:12:50.562Z,34.23
2018-10-09T02:15:18.748Z,32.17
2018-10-09T02:17:46.955Z,37.97
2018-10-09T02:20:15.146Z,42.83
2018-10-09T02:22:43.349Z,38.83
2018-10-09T02:25:11.622Z,44.07
2018-10-09T02:27:39.875Z,45.90
2018-10-09T02:30:09.077Z,35.67
2018-10-09T02:32:37.262Z,36.90
2018-10-09T02:35:05.492Z,36.13
2018-10-09T02:37:33.663Z,35.13
2018-10-09T02:40:01.839Z,34.70
2018-10-09T02:42:30.049Z,33.70
2018-10-09T02:44:58.245Z,34.53
2018-10-09T02:47:26.424Z,35.07
2018-10-09T02:49:54.622Z,32.00
2018-10-09T02:52:22.840Z,32.37
2018-10-09T02:54:51.027Z,33.30
2018-10-09T02:57:19.222Z,30.30
2018-10-09T02:59:47.422Z,30.00
2018-10-09T03:02:15.852Z,30.30
2018-10-09T03:04:44.050Z,29.17
2018-10-09T03:07:12.235Z,33.70
2018-10-09T03:09:40.635Z,33.63
2018-10-09T03:12:09.071Z,30.93
2018-10-09T03:14:37.291Z,30.77
2018-10-09T03:17:05.491Z,30.70
2018-10-09T03:19:33.683Z,29.67
2018-10-09T03:22:02.734Z,30.23
2018-10-09T03:24:31.147Z,30.00
2018-10-09T03:26:59.339Z,29.83
2018-10-09T03:29:27.522Z,28.33
2018-10-09T03:31:55.739Z,28.77
2018-10-09T03:34:23.925Z,28.03
2018-10-09T03:36:52.111Z,28.23
2018-10-09T03:39:20.303Z,29.13
2018-10-09T03:41:48.519Z,29.63
2018-10-09T03:44:16.727Z,28.60
2018-10-09T03:46:44.950Z,29.13
2018-10-09T03:49:13.150Z,27.93
2018-10-09T03:51:41.846Z,29.73
2018-10-09T03:54:10.058Z,30.13
2018-10-09T03:56:38.670Z,30.63
2018-10-09T03:59:06.865Z,32.30
2018-10-09T04:01:35.046Z,33.27
2018-10-09T04:04:03.228Z,32.43
2018-10-09T04:06:31.996Z,49.97
2018-10-09T04:09:00.244Z,36.40
2018-10-09T04:11:28.346Z,34.13
2018-10-09T04:13:56.539Z,38.50
2018-10-09T04:16:24.732Z,32.37
2018-10-09T04:18:52.937Z,37.73
2018-10-09T04:21:21.118Z,31.37
2018-10-09T04:23:49.284Z,40.17
2018-10-09T04:26:17.447Z,35.10
2018-10-09T04:28:45.626Z,39.20
2018-10-09T04:31:13.834Z,34.17
2018-10-09T04:33:42.246Z,31.90
2018-10-09T04:36:10.418Z,33.23
2018-10-09T04:38:38.595Z,36.33
2018-10-09T04:41:06.806Z,37.40
2018-10-09T04:43:34.983Z,41.43
2018-10-09T04:46:03.175Z,37.10
2018-10-09T04:48:31.570Z,34.63
2018-10-09T04:50:59.806Z,33.17
2018-10-09T04:53:28.023Z,35.77
2018-10-09T04:55:56.454Z,34.97
2018-10-09T04:58:24.648Z,36.33
2018-10-09T05:00:52.863Z,33.53
2018-10-09T05:03:21.044Z,34.23
2018-10-09T05:05:49.206Z,33.77
2018-10-09T05:08:17.396Z,34.73
2018-10-09T05:10:45.602Z,32.23
2018-10-09T05:13:13.758Z,32.80
2018-10-09T05:15:41.946Z,35.57
2018-10-09T05:18:10.110Z,37.83
2018-10-09T05:20:38.431Z,33.60
2018-10-09T05:23:06.646Z,32.60
2018-10-09T05:25:34.806Z,33.60
2018-10-09T05:28:02.983Z,34.87
2018-10-09T05:30:31.155Z,35.20
2018-10-09T05:32:59.314Z,34.73
2018-10-09T05:35:27.506Z,35.03
2018-10-09T05:37:55.674Z,40.10
2018-10-09T05:40:23.851Z,39.13
2018-10-09T05:42:52.054Z,50.10
2018-10-09T05:45:20.238Z,40.53
2018-10-09T05:47:48.416Z,41.43
2018-10-09T05:50:16.602Z,37.67
2018-10-09T05:52:44.821Z,43.60
2018-10-09T05:55:13.712Z,48.27
2018-10-09T05:57:41.878Z,42.27
2018-10-09T06:00:10.391Z,37.93
2018-10-09T06:02:38.591Z,43.30
2018-10-09T06:05:06.994Z,38.17
2018-10-09T06:07:35.280Z,43.97
2018-10-09T06:10:03.466Z,42.23
2018-10-09T06:12:31.659Z,41.60
2018-10-09T06:14:59.818Z,36.30
2018-10-09T06:17:27.980Z,40.33
2018-10-09T06:19:56.170Z,35.43
2018-10-09T06:22:24.338Z,36.17
2018-10-09T06:24:52.507Z,38.50
2018-10-09T06:27:20.679Z,37.50
2018-10-09T06:29:48.847Z,38.10
2018-10-09T06:32:17.238Z,37.37
2018-10-09T06:34:45.419Z,33.40
2018-10-09T06:37:13.644Z,33.90
2018-10-09T06:39:41.808Z,36.57
2018-10-09T06:42:09.951Z,35.53
2018-10-09T06:44:38.323Z,34.90
2018-10-09T06:47:06.510Z,40.03
2018-10-09T06:49:34.686Z,34.07
2018-10-09T06:52:02.866Z,37.70
2018-10-09T06:54:31.156Z,36.07
2018-10-09T06:56:59.198Z,36.77
2018-10-09T06:59:27.402Z,34.27
2018-10-09T07:01:56.163Z,39.77
2018-10-09T07:04:24.601Z,40.27
2018-10-09T07:06:52.796Z,34.40
2018-10-09T07:09:21.435Z,34.27
2018-10-09T07:11:49.945Z,34.30
2018-10-09T07:14:18.106Z,35.10
2018-10-09T07:16:46.275Z,36.20
2018-10-09T07:19:14.444Z,40.80
2018-10-09T07:21:42.685Z,35.80
2018-10-09T07:24:10.867Z,31.37
2018-10-09T07:26:39.331Z,33.47
2018-10-09T07:29:07.838Z,32.27
2018-10-09T07:31:36.043Z,35.60
2018-10-09T07:34:04.218Z,34.37
2018-10-09T07:36:32.404Z,30.70
2018-10-09T07:39:00.586Z,30.77
2018-10-09T07:41:28.887Z,28.33
2018-10-09T07:43:57.345Z,31.17
2018-10-09T07:46:25.527Z,31.20
2018-10-09T07:48:53.722Z,31.40
2018-10-09T07:51:21.922Z,29.07
2018-10-09T07:53:50.115Z,30.03
2018-10-09T07:56:18.322Z,28.90
2018-10-09T07:58:46.642Z,29.50
2018-10-09T08:01:14.755Z,29.23
2018-10-09T08:03:43.011Z,30.97
2018-10-09T08:06:11.197Z,27.97
2018-10-09T08:08:39.385Z,29.23
2018-10-09T08:11:07.619Z,31.07
2018-10-09T08:13:36.251Z,30.77
2018-10-09T08:16:04.447Z,31.33
2018-10-09T08:18:32.679Z,29.90
2018-10-09T08:21:00.927Z,31.83
2018-10-09T08:23:29.135Z,31.27
2018-10-09T08:25:57.643Z,32.80
2018-10-09T08:28:26.194Z,30.67
2018-10-09T08:30:54.391Z,31.50
2018-10-09T08:33:22.625Z,30.33
2018-10-09T08:35:50.812Z,28.17
2018-10-09T08:38:19.035Z,28.70
2018-10-09T08:40:47.235Z,29.20
2018-10-09T08:43:15.414Z,28.87
2018-10-09T08:45:43.581Z,28.67
2018-10-09T08:48:11.813Z,28.97
2018-10-09T08:50:39.974Z,28.53
2018-10-09T08:53:08.163Z,27.50
2018-10-09T08:55:36.346Z,28.40
2018-10-09T08:58:04.555Z,28.40
2018-10-09T09:00:32.819Z,27.10
2018-10-09T09:03:00.990Z,29.57
2018-10-09T09:05:29.172Z,28.87
2018-10-09T09:07:57.602Z,27.20
2018-10-09T09:10:25.995Z,28.20
2018-10-09T09:12:54.174Z,28.33
2018-10-09T09:15:22.392Z,28.00
2018-10-09T09:17:50.535Z,27.00
2018-10-09T09:20:18.706Z,27.83
2018-10-09T09:22:46.887Z,28.07
2018-10-09T09:25:15.104Z,26.50
2018-10-09T09:27:43.314Z,26.77
2018-10-09T09:30:11.521Z,26.23
2018-10-09T09:32:39.844Z,26.73
2018-10-09T09:35:08.043Z,27.00
2018-10-09T09:37:36.239Z,26.17
2018-10-09T09:40:04.414Z,25.97
2018-10-09T09:42:32.616Z,25.37
2018-10-09T09:45:00.825Z,23.73
2018-10-09T09:47:29.242Z,24.57
2018-10-09T09:49:57.427Z,23.87
2018-10-09T09:52:25.644Z,24.67
2018-10-09T09:54:53.855Z,24.30
2018-10-09T09:57:22.055Z,26.07
2018-10-09T09:59:50.221Z,24.98
2018-10-09T10:02:18.440Z,24.87
2018-10-09T10:04:46.621Z,25.15
2018-10-09T10:07:14.812Z,24.05
2018-10-09T10:09:43.236Z,24.35
2018-10-09T10:12:11.725Z,23.98
2018-10-09T10:14:39.906Z,25.27
2018-10-09T10:17:08.108Z,24.75
2018-10-09T10:19:36.313Z,26.27
2018-10-09T10:22:04.527Z,24.72
2018-10-09T10:24:32.716Z,25.05
2018-10-09T10:27:00.948Z,25.17
2018-10-09T10:29:29.130Z,23.55
2018-10-09T10:31:57.307Z,24.45
2018-10-09T10:34:25.516Z,23.77
2018-10-09T10:36:54.728Z,23.47
2018-10-09T10:39:22.916Z,23.18
2018-10-09T10:41:51.137Z,25.77
2018-10-09T10:44:19.343Z,24.10
2018-10-09T10:46:47.559Z,23.38
2018-10-09T10:49:15.935Z,22.17
2018-10-09T10:51:44.363Z,22.87
2018-10-09T10:54:12.827Z,22.87
2018-10-09T10:56:41.022Z,21.97
2018-10-09T10:59:09.255Z,21.97
2018-10-09T11:01:37.481Z,23.32
2018-10-09T11:04:05.687Z,22.05
2018-10-09T11:06:33.886Z,21.12
2018-10-09T11:09:02.140Z,21.37
2018-10-09T11:11:30.566Z,19.85
2018-10-09T11:13:58.779Z,20.72
2018-10-09T11:16:26.974Z,21.87
2018-10-09T11:18:55.434Z,24.40
2018-10-09T11:21:23.741Z,19.40
2018-10-09T11:23:52.066Z,19.62
2018-10-09T11:26:20.495Z,19.32
2018-10-09T11:28:48.698Z,54.35
2018-10-09T11:31:16.910Z,19.20
2018-10-09T11:33:45.118Z,19.15
2018-10-09T11:36:13.315Z,18.77
2018-10-09T11:38:41.539Z,18.50
2018-10-09T11:41:09.742Z,19.50
2018-10-09T11:43:37.978Z,64.22
2018-10-09T11:46:06.431Z,19.77
2018-10-09T11:48:34.630Z,18.42
2018-10-09T11:51:02.830Z,17.00
2018-10-09T11:53:31.029Z,16.62
2018-10-09T11:55:59.566Z,17.35
2018-10-09T11:58:27.826Z,17.98
2018-10-09T12:00:58.194Z,16.77
2018-10-09T12:03:26.396Z,17.12
2018-10-09T12:05:54.645Z,17.62
2018-10-09T12:08:23.106Z,17.45
2018-10-09T12:10:51.309Z,17.92
2018-10-09T12:13:19.537Z,18.55
2018-10-09T12:15:47.821Z,17.05
2018-10-09T12:18:16.088Z,17.40
2018-10-09T12:20:44.290Z,17.85
2018-10-09T12:23:12.492Z,17.20
2018-10-09T12:25:40.731Z,17.15
2018-10-09T12:28:08.923Z,17.60
2018-10-09T12:30:37.138Z,17.00
2018-10-09T12:33:05.351Z,16.97
2018-10-09T12:35:33.519Z,17.48
2018-10-09T12:38:01.671Z,16.75
2018-10-09T12:40:29.886Z,16.93
2018-10-09T12:42:58.279Z,16.30
2018-10-09T12:45:26.450Z,15.80
2018-10-09T12:47:54.614Z,16.80
2018-10-09T12:50:22.800Z,16.45
2018-10-09T12:52:51.065Z,15.85
2018-10-09T12:55:19.222Z,15.93
2018-10-09T12:57:47.391Z,16.25
2018-10-09T13:00:15.543Z,16.10
2018-10-09T13:02:43.709Z,14.68
2018-10-09T13:05:12.090Z,15.35
2018-10-09T13:07:40.539Z,15.40
2018-10-09T13:10:08.706Z,14.78
2018-10-09T13:12:36.867Z,16.30
2018-10-09T13:15:05.080Z,16.20
2018-10-09T13:17:33.258Z,15.25
2018-10-09T13:20:01.407Z,15.68
2018-10-09T13:22:29.957Z,16.67
2018-10-09T13:24:57.731Z,17.07
2018-10-09T13:27:25.892Z,17.00
2018-10-09T13:29:54.042Z,15.40
2018-10-09T13:32:22.206Z,17.27
2018-10-09T13:34:50.354Z,16.50
2018-10-09T13:37:18.522Z,15.80
2018-10-09T13:39:46.942Z,15.58
2018-10-09T13:42:15.111Z,14.55
2018-10-09T13:44:43.267Z,16.37
2018-10-09T13:47:11.475Z,15.60
2018-10-09T13:49:39.578Z,16.20
2018-10-09T13:52:07.746Z,15.88
2018-10-09T13:54:35.923Z,14.18
2018-10-09T13:57:04.122Z,13.50
2018-10-09T13:59:32.235Z,14.10
2018-10-09T14:02:00.406Z,15.08
2018-10-09T14:04:28.558Z,13.62
2018-10-09T14:06:56.723Z,13.05
2018-10-09T14:09:24.871Z,14.20
2018-10-09T14:11:53.035Z,14.53
2018-10-09T14:14:21.188Z,13.38
2018-10-09T14:16:49.562Z,12.93
2018-10-09T14:19:17.715Z,12.85
2018-10-09T14:21:46.083Z,11.35
2018-10-09T14:24:14.230Z,11.70
2018-10-09T14:26:42.403Z,12.90
2018-10-09T14:29:10.556Z,11.48
2018-10-09T14:31:38.710Z,12.88
2018-10-09T14:34:07.558Z,13.90
2018-10-09T14:36:35.771Z,12.70
2018-10-09T14:39:06.162Z,13.85
2018-10-09T14:41:34.718Z,12.70
2018-10-09T14:44:02.950Z,13.78
2018-10-09T14:46:31.035Z,13.98
2018-10-09T14:48:59.194Z,12.75
2018-10-09T14:51:27.338Z,13.85
2018-10-09T14:53:55.496Z,13.13
2018-10-09T14:56:23.658Z,13.55
2018-10-09T14:58:51.818Z,13.78
2018-10-09T15:01:20.014Z,15.05
2018-10-09T15:03:48.184Z,14.13
2018-10-09T15:06:16.343Z,12.93
2018-10-09T15:08:44.506Z,13.70
2018-10-09T15:11:12.659Z,14.30
2018-10-09T15:13:40.825Z,14.38
2018-10-09T15:16:09.008Z,13.48
2018-10-09T15:18:37.178Z,13.30
2018-10-09T15:21:05.414Z,13.25
2018-10-09T15:23:33.574Z,14.60
2018-10-09T15:26:01.807Z,14.63
2018-10-09T15:28:29.950Z,13.35
2018-10-09T15:30:58.111Z,14.30
2018-10-09T15:33:26.278Z,13.93
2018-10-09T15:35:54.882Z,14.78
2018-10-09T15:38:23.044Z,15.30
2018-10-09T15:40:51.206Z,17.77
2018-10-09T15:43:19.390Z,15.23
2018-10-09T15:45:47.559Z,16.65
2018-10-09T15:48:15.727Z,17.32
2018-10-09T15:50:43.890Z,14.80
2018-10-09T15:53:12.063Z,17.42
2018-10-09T15:55:40.251Z,19.00
2018-10-09T15:58:08.371Z,22.17
2018-10-09T16:00:36.919Z,19.17
2018-10-09T16:03:05.622Z,18.75
2018-10-09T16:05:34.084Z,17.30
2018-10-09T16:08:02.475Z,18.30
2018-10-09T16:10:30.947Z,17.45
2018-10-09T16:12:59.103Z,17.07
2018-10-09T16:15:27.283Z,16.62
2018-10-09T16:17:55.451Z,16.75
2018-10-09T16:20:23.841Z,16.10
2018-10-09T16:22:51.999Z,16.75
2018-10-09T16:25:20.171Z,18.50
2018-10-09T16:27:48.330Z,18.82
2018-10-09T16:30:16.495Z,18.25
2018-10-09T16:32:44.796Z,20.82
2018-10-09T16:35:13.579Z,19.17
2018-10-09T16:37:42.001Z,18.62
2018-10-09T16:40:10.197Z,18.90
2018-10-09T16:42:38.357Z,19.70
2018-10-09T16:45:06.622Z,19.32
2018-10-09T16:47:35.004Z,18.12
2018-10-09T16:50:03.171Z,19.25
2018-10-09T16:52:31.318Z,20.00
2018-10-09T16:54:59.494Z,19.35
2018-10-09T16:57:27.638Z,20.10
2018-10-09T16:59:55.799Z,20.00
2018-10-09T17:02:23.950Z,20.25
2018-10-09T17:04:52.120Z,19.60
2018-10-09T17:07:20.338Z,19.80
2018-10-09T17:09:48.494Z,21.25
2018-10-09T17:12:16.683Z,25.27
2018-10-09T17:14:44.854Z,24.30
2018-10-09T17:17:13.002Z,23.40
2018-10-09T17:19:41.189Z,23.33
2018-10-09T17:22:09.343Z,22.10
2018-10-09T17:24:38.603Z,22.40
2018-10-09T17:27:06.780Z,23.40
2018-10-09T17:29:35.198Z,21.93
2018-10-09T17:32:03.359Z,23.50
2018-10-09T17:34:31.634Z,26.07
2018-10-09T17:36:59.816Z,25.67
2018-10-09T17:39:27.981Z,25.43
2018-10-09T17:41:56.189Z,26.60
2018-10-09T17:44:24.391Z,27.10
2018-10-09T17:46:52.575Z,26.87
2018-10-09T17:49:20.715Z,29.00
2018-10-09T17:51:48.878Z,26.77
2018-10-09T17:54:17.046Z,28.70
2018-10-09T17:56:45.230Z,27.00
2018-10-09T17:59:13.428Z,26.10
2018-10-09T18:01:41.602Z,24.87
2018-10-09T18:04:09.805Z,26.40
2018-10-09T18:06:38.005Z,27.90
2018-10-09T18:09:09.466Z,27.67
2018-10-09T18:11:37.656Z,27.80
2018-10-09T18:14:06.526Z,28.80
2018-10-09T18:16:34.691Z,25.03
2018-10-09T18:19:03.006Z,25.67
2018-10-09T18:21:31.282Z,30.10
2018-10-09T18:23:59.435Z,32.93
2018-10-09T18:26:27.813Z,31.37
2018-10-09T18:28:55.966Z,33.53
2018-10-09T18:31:24.151Z,32.63
2018-10-09T18:33:52.294Z,29.63
2018-10-09T18:36:20.458Z,31.27
2018-10-09T18:38:48.607Z,30.80
2018-10-09T18:41:16.856Z,31.40
2018-10-09T18:43:44.999Z,30.53
2018-10-09T18:46:13.163Z,27.80
2018-10-09T18:48:41.347Z,27.80
2018-10-09T18:51:09.501Z,28.17
2018-10-09T18:53:37.646Z,29.07
2018-10-09T18:56:05.806Z,27.00
2018-10-09T18:58:33.977Z,28.30
2018-10-09T19:01:02.320Z,28.33
2018-10-09T19:03:30.522Z,30.57
2018-10-09T19:05:58.691Z,30.00
2018-10-09T19:08:26.878Z,27.33
2018-10-09T19:10:55.087Z,33.20
2018-10-09T19:13:23.212Z,33.40
2018-10-09T19:15:51.382Z,31.63
2018-10-09T19:18:19.536Z,30.27
2018-10-09T19:20:47.686Z,28.83
2018-10-09T19:23:15.857Z,30.43
2018-10-09T19:25:44.024Z,30.67
2018-10-09T19:28:12.182Z,31.93
2018-10-09T19:30:40.331Z,28.70
2018-10-09T19:33:08.503Z,29.77
2018-10-09T19:35:36.722Z,30.97
2018-10-09T19:38:04.894Z,32.10
2018-10-09T19:40:33.426Z,29.17
2018-10-09T19:43:01.835Z,26.27
2018-10-09T19:45:29.987Z,26.97
2018-10-09T19:47:58.159Z,24.70
2018-10-09T19:50:26.302Z,27.97
2018-10-09T19:52:54.455Z,26.47
2018-10-09T19:55:22.594Z,27.30
2018-10-09T19:57:50.838Z,24.63
2018-10-09T20:00:19.078Z,29.97
2018-10-09T20:02:47.234Z,31.33
2018-10-09T20:05:15.510Z,26.80
2018-10-09T20:07:44.181Z,38.50
2018-10-09T20:10:12.291Z,34.40
2018-10-09T20:12:40.445Z,28.40
2018-10-09T20:15:08.814Z,29.03
2018-10-09T20:17:37.401Z,25.67
2018-10-09T20:20:05.557Z,25.50
2018-10-09T20:22:33.707Z,22.60
2018-10-09T20:25:02.063Z,23.93
2018-10-09T20:27:30.215Z,25.90
2018-10-09T20:29:58.363Z,26.73
2018-10-09T20:32:26.539Z,25.20
2018-10-09T20:34:54.908Z,24.03
2018-10-09T20:37:23.125Z,23.63
2018-10-09T20:39:51.266Z,24.60
2018-10-09T20:42:19.442Z,30.10
2018-10-09T20:44:47.806Z,24.73
2018-10-09T20:47:20.244Z,27.40
2018-10-09T20:49:48.394Z,24.23
2018-10-09T20:52:16.563Z,24.03
2018-10-09T20:54:44.723Z,26.33
2018-10-09T20:57:12.875Z,26.63
2018-10-09T20:59:41.140Z,27.53
2018-10-09T21:02:09.185Z,25.23
2018-10-09T21:04:37.339Z,25.37
2018-10-09T21:07:06.023Z,23.40
2018-10-09T21:09:34.184Z,23.60
2018-10-09T21:12:02.354Z,24.63
2018-10-09T21:14:30.734Z,22.20
2018-10-09T21:16:58.887Z,21.33
2018-10-09T21:19:27.043Z,23.03
2018-10-09T21:21:55.496Z,21.53
2018-10-09T21:24:23.639Z,21.73
2018-10-09T21:26:51.789Z,23.73
2018-10-09T21:29:19.946Z,24.93
2018-10-09T21:31:48.087Z,24.10
2018-10-09T21:34:16.255Z,26.17
2018-10-09T21:36:44.407Z,25.80
2018-10-09T21:39:12.601Z,25.17
2018-10-09T21:41:40.750Z,27.07
2018-10-09T21:44:09.125Z,25.23
2018-10-09T21:46:37.312Z,24.13
2018-10-09T21:49:05.603Z,22.30
2018-10-09T21:51:33.771Z,21.30
2018-10-09T21:54:01.935Z,20.53
2018-10-09T21:56:30.087Z,19.87
2018-10-09T21:58:58.242Z,18.27
2018-10-09T22:01:26.392Z,16.03
2018-10-09T22:03:54.545Z,17.63
2018-10-09T22:06:22.695Z,18.70
2018-10-09T22:08:50.850Z,19.53
2018-10-09T22:11:18.994Z,24.10
2018-10-09T22:13:47.151Z,20.37
2018-10-09T22:16:15.306Z,20.63
2018-10-09T22:18:43.475Z,19.37
2018-10-09T22:21:11.617Z,18.67
2018-10-09T22:23:39.779Z,19.30
2018-10-09T22:26:07.943Z,19.80
2018-10-09T22:28:36.101Z,19.80
2018-10-09T22:31:04.263Z,19.80
2018-10-09T22:33:32.414Z,20.27
2018-10-09T22:36:00.572Z,22.37
2018-10-09T22:38:28.788Z,23.10
2018-10-09T22:40:56.895Z,23.17
2018-10-09T22:43:25.051Z,24.00
2018-10-09T22:45:53.210Z,23.57
2018-10-09T22:48:21.358Z,25.40
2018-10-09T22:50:49.727Z,26.03
2018-10-09T22:53:17.878Z,24.50
2018-10-09T22:55:46.036Z,22.90
2018-10-09T22:58:14.191Z,22.37
2018-10-09T23:00:42.338Z,23.07
2018-10-09T23:03:10.494Z,22.23
2018-10-09T23:05:38.666Z,25.87
2018-10-09T23:08:07.036Z,23.37
2018-10-09T23:10:35.196Z,23.70
2018-10-09T23:13:03.340Z,23.77
2018-10-09T23:15:31.518Z,23.33
2018-10-09T23:17:59.658Z,21.53
2018-10-09T23:20:27.839Z,22.37
2018-10-09T23:22:56.003Z,26.13
2018-10-09T23:25:24.154Z,24.57
2018-10-09T23:27:52.314Z,26.33
2018-10-09T23:30:20.486Z,24.87
2018-10-09T23:32:48.630Z,24.07
2018-10-09T23:35:16.799Z,23.43
2018-10-09T23:37:44.946Z,22.80
2018-10-09T23:40:13.115Z,23.67
2018-10-09T23:42:41.306Z,23.23
2018-10-09T23:45:09.435Z,22.20
2018-10-09T23:47:37.579Z,21.43
2018-10-09T23:50:05.745Z,22.03
2018-10-09T23:52:33.920Z,22.23
2018-10-09T23:55:02.069Z,21.47
2018-10-09T23:57:30.441Z,20.97
2018-10-09T23:59:58.594Z,21.30
